Time;durP1;ratioP1;P1;durP2;ratioP2;P2;SDS_P1;SDS_P2;PMS_P1;PMS_P2;Temp;Humidity;BMP_temperature;BMP_pressure;BME280_temperature;BME280_humidity;BME280_pressure;Samples;Min_cycle;Max_cycle;Signal;HPM_P1;HPM_P2
2022/11/11 00:01:12;;;;;;;16.95;7.50;;;;;;;10.43;84.05;102131.48;1695219;83;21117;-85
2022/11/11 00:03:39;;;;;;;16.40;6.83;;;;;;;10.44;84.03;102139.88;1681464;83;21043;-85
2022/11/11 00:08:50;;;;;;;14.47;7.40;;;;;;;10.50;83.99;102140.58;1795876;77;23892;-86
2022/11/11 00:11:17;;;;;;;15.95;7.95;;;;;;;10.47;83.92;102137.79;1790119;79;20984;-87
2022/11/11 00:13:44;;;;;;;18.67;7.55;;;;;;;10.49;83.91;102136.13;1793142;79;21729;-87
2022/11/11 00:16:17;;;;;;;19.00;7.90;;;;;;;10.47;83.79;102130.81;1788495;78;21013;-87
2022/11/11 00:27:09;;;;;;;24.55;7.90;;;;;;;10.43;83.76;102135.84;1786220;79;21684;-86
2022/11/11 00:29:36;;;;;;;12.07;7.15;;;;;;;10.45;83.75;102142.08;1789496;79;21062;-86
2022/11/11 00:32:22;;;;;;;20.10;7.60;;;;;;;10.44;83.74;102137.24;1788124;78;21002;-86
2022/11/11 00:37:35;;;;;;;19.57;8.05;;;;;;;10.45;83.66;102144.72;1789436;79;21049;-86
2022/11/11 00:40:01;;;;;;;17.77;8.20;;;;;;;10.43;83.66;102150.33;1790511;79;22576;-86
2022/11/11 00:42:28;;;;;;;17.57;8.33;;;;;;;10.42;83.67;102153.38;1792057;78;21049;-85
2022/11/11 00:44:55;;;;;;;18.10;8.03;;;;;;;10.41;83.69;102156.83;1792923;79;21110;-86
2022/11/11 00:53:10;;;;;;;16.52;7.17;;;;;;;10.36;83.55;102153.48;1787327;79;21983;-85
2022/11/11 00:55:37;;;;;;;12.85;7.22;;;;;;;10.33;83.63;102163.88;1789049;78;21076;-85
2022/11/11 00:58:03;;;;;;;18.17;7.37;;;;;;;10.32;83.65;102161.64;1780768;79;21009;-88
2022/11/11 01:00:30;;;;;;;15.05;7.90;;;;;;;10.33;83.69;102167.83;1786581;79;21991;-85
2022/11/11 01:02:57;;;;;;;17.07;7.65;;;;;;;10.33;83.77;102158.20;1787314;78;21120;-85
2022/11/11 01:05:24;;;;;;;15.35;7.05;;;;;;;10.34;83.71;102155.14;1783119;79;21776;-85
2022/11/11 01:07:51;;;;;;;17.23;7.83;;;;;;;10.32;83.66;102152.43;1781327;79;21036;-85
2022/11/11 01:11:03;;;;;;;22.27;8.48;;;;;;;10.30;83.65;102143.17;1792365;79;21033;-85
2022/11/11 01:12:47;;;;;;;13.50;7.55;;;;;;;10.27;83.65;102136.82;1762028;79;21041;-86
2022/11/11 01:15:13;;;;;;;19.30;7.70;;;;;;;10.26;83.70;102135.00;1787079;79;21072;-86
2022/11/11 01:17:40;;;;;;;22.55;7.92;;;;;;;10.25;83.69;102135.84;1789604;78;21904;-86
2022/11/11 01:20:08;;;;;;;17.90;8.23;;;;;;;10.25;83.78;102137.16;1787113;79;21127;-86
2022/11/11 01:22:34;;;;;;;19.50;7.97;;;;;;;10.27;83.86;102134.19;1792218;79;21056;-86
2022/11/11 01:25:01;;;;;;;15.55;6.92;;;;;;;10.28;83.85;102128.97;1787372;79;21081;-86
2022/11/11 01:27:28;;;;;;;21.65;7.85;;;;;;;10.26;83.80;102121.42;1797574;79;21036;-86
2022/11/11 01:29:54;;;;;;;19.40;7.45;;;;;;;10.27;83.87;102114.45;1790225;78;22539;-86
2022/11/11 01:32:21;;;;;;;19.45;8.00;;;;;;;10.30;83.92;102118.17;1798420;79;21495;-86
2022/11/11 01:34:48;;;;;;;14.87;7.83;;;;;;;10.32;83.91;102107.69;1782638;79;21583;-86
2022/11/11 01:37:14;;;;;;;16.77;7.62;;;;;;;10.34;83.94;102107.34;1793987;78;21108;-88
2022/11/11 01:39:41;;;;;;;17.30;7.78;;;;;;;10.36;83.93;102099.14;1792203;79;21113;-86
2022/11/11 01:42:08;;;;;;;17.23;7.15;;;;;;;10.40;84.01;102095.81;1783590;79;21736;-86
2022/11/11 01:44:46;;;;;;;14.73;7.95;;;;;;;10.44;84.06;102096.44;1793799;79;21022;-86
2022/11/11 01:47:13;;;;;;;20.40;7.10;;;;;;;10.48;84.00;102089.59;1797182;79;20894;-86
2022/11/11 01:49:59;;;;;;;13.00;6.58;;;;;;;10.50;84.03;102086.19;1780436;79;21789;-86
2022/11/11 01:52:35;;;;;;;18.77;6.70;;;;;;;10.53;83.96;102082.82;1761074;79;21123;-87
2022/11/11 01:55:17;;;;;;;13.55;6.60;;;;;;;10.55;83.94;102074.57;1784788;79;21650;-86
2022/11/11 01:57:56;;;;;;;14.58;7.20;;;;;;;10.56;83.94;102083.36;1789296;79;21013;-86
2022/11/11 02:00:23;;;;;;;12.10;6.58;;;;;;;10.57;83.85;102082.13;1789939;78;20973;-87
2022/11/11 02:02:57;;;;;;;17.48;6.80;;;;;;;10.56;83.81;102089.94;1787750;78;21052;-86
2022/11/11 02:05:44;;;;;;;15.95;7.60;;;;;;;10.55;83.75;102099.97;1789967;79;20986;-86
2022/11/11 02:08:33;;;;;;;18.75;7.28;;;;;;;10.53;83.72;102115.73;1788811;79;21811;-86
2022/11/11 02:11:13;;;;;;;15.90;6.95;;;;;;;10.53;83.75;102126.65;1792869;79;20970;-86
2022/11/11 02:16:26;;;;;;;11.78;7.05;;;;;;;10.56;83.85;102137.34;1788816;79;21488;-85
2022/11/11 02:18:53;;;;;;;16.25;7.28;;;;;;;10.57;83.84;102141.79;1790112;79;21777;-85
2022/11/11 02:21:36;;;;;;;17.65;7.90;;;;;;;10.58;83.78;102142.25;1786716;78;22855;-86
2022/11/11 02:24:09;;;;;;;16.60;8.03;;;;;;;10.60;83.77;102144.55;1786972;79;21034;-85
2022/11/11 02:26:35;;;;;;;15.55;7.67;;;;;;;10.60;83.76;102144.55;1786942;79;20990;-85
2022/11/11 02:29:03;;;;;;;15.72;7.40;;;;;;;10.60;83.76;102152.02;1760603;79;20970;-86
2022/11/11 02:31:30;;;;;;;10.35;7.03;;;;;;;10.57;83.73;102136.52;1790994;78;21005;-86
2022/11/11 02:33:57;;;;;;;13.62;6.92;;;;;;;10.56;83.68;102143.92;1761335;79;22212;-86
2022/11/11 02:36:24;;;;;;;15.70;7.00;;;;;;;10.56;83.66;102144.81;1789477;79;21017;-86
2022/11/11 02:38:51;;;;;;;16.40;7.33;;;;;;;10.51;83.56;102150.30;1786505;79;21065;-85
2022/11/11 02:44:02;;;;;;;17.65;7.70;;;;;;;10.42;83.58;102164.33;1790966;78;21057;-86
2022/11/11 02:46:29;;;;;;;13.20;7.60;;;;;;;10.39;83.65;102161.12;1785778;78;22810;-86
2022/11/11 02:48:56;;;;;;;17.35;7.72;;;;;;;10.42;83.85;102159.96;1794284;78;21034;-85
2022/11/11 02:51:22;;;;;;;15.48;6.80;;;;;;;10.45;83.92;102163.14;1784635;78;21448;-86
2022/11/11 02:53:49;;;;;;;16.93;6.95;;;;;;;10.49;83.93;102159.44;1791008;78;20997;-86
2022/11/11 02:57:05;;;;;;;12.53;7.25;;;;;;;10.51;83.92;102167.41;1797140;79;21037;-86
2022/11/11 02:58:44;;;;;;;18.07;6.50;;;;;;;10.55;83.97;102173.30;1785769;79;21734;-86
2022/11/11 03:01:11;;;;;;;13.40;7.00;;;;;;;10.58;83.97;102172.53;1792572;79;21041;-85
2022/11/11 03:03:37;;;;;;;20.05;7.90;;;;;;;10.62;83.94;102163.95;1786418;79;20973;-85
2022/11/11 03:06:04;;;;;;;17.05;6.30;;;;;;;10.65;83.87;102164.11;1785416;79;21494;-85
2022/11/11 03:08:31;;;;;;;17.32;7.00;;;;;;;10.67;83.82;102163.34;1790081;79;20902;-85
2022/11/11 03:10:58;;;;;;;17.55;7.05;;;;;;;10.68;83.79;102166.89;1760711;79;21780;-86
2022/11/11 03:13:25;;;;;;;14.10;7.15;;;;;;;10.68;83.76;102162.95;1789288;79;21966;-86
2022/11/11 03:15:51;;;;;;;16.10;8.45;;;;;;;10.72;83.82;102167.91;1788692;79;21011;-86
2022/11/11 03:18:18;;;;;;;16.97;7.12;;;;;;;10.75;83.83;102170.28;1784840;79;20986;-86
2022/11/11 03:23:30;;;;;;;18.62;7.25;;;;;;;10.79;83.80;102181.47;1779758;79;23032;-86
2022/11/11 03:25:56;;;;;;;14.13;7.62;;;;;;;10.83;83.82;102189.07;1788399;79;21210;-86
2022/11/11 03:28:26;;;;;;;18.35;7.15;;;;;;;10.84;83.76;102201.42;1790340;79;21091;-86
2022/11/11 03:30:53;;;;;;;17.17;7.22;;;;;;;10.86;83.79;102191.86;1785175;79;21045;-85
2022/11/11 03:33:19;;;;;;;14.93;7.12;;;;;;;10.87;83.76;102176.13;1763180;79;21571;-86
2022/11/11 03:35:46;;;;;;;20.20;7.85;;;;;;;10.89;83.75;102162.61;1797306;79;23169;-86
2022/11/11 03:38:25;;;;;;;22.87;11.40;;;;;;;10.91;83.68;102153.89;1764808;79;21037;-85
2022/11/11 03:40:54;;;;;;;14.75;7.17;;;;;;;10.91;83.63;102154.79;1790965;79;21319;-86
2022/11/11 03:43:26;;;;;;;17.85;7.12;;;;;;;10.88;83.64;102146.31;1789478;79;20987;-86
2022/11/11 03:45:57;;;;;;;14.07;7.15;;;;;;;10.92;83.61;102147.78;1787101;79;21026;-86
2022/11/11 03:48:25;;;;;;;20.85;6.45;;;;;;;10.95;83.73;102147.94;1789254;79;21738;-85
2022/11/11 03:50:52;;;;;;;14.87;6.05;;;;;;;10.97;83.58;102146.27;1785789;79;21034;-85
2022/11/11 03:53:19;;;;;;;15.50;6.05;;;;;;;10.93;83.57;102139.06;1792003;79;20993;-85
2022/11/11 03:55:45;;;;;;;16.15;5.78;;;;;;;10.93;83.57;102128.52;1781804;79;21023;-85
2022/11/11 03:58:12;;;;;;;18.02;6.70;;;;;;;10.93;83.59;102127.20;1800063;79;21023;-86
2022/11/11 04:00:39;;;;;;;14.63;5.95;;;;;;;10.95;83.63;102127.75;1788886;79;21721;-86
2022/11/11 04:10:21;;;;;;;13.65;5.67;;;;;;;10.97;83.57;102135.73;1790883;79;20991;-86
2022/11/11 04:11:26;;;;;;;16.77;5.97;;;;;;;11.03;83.60;102132.05;1790064;79;20941;-86
2022/11/11 04:16:38;;;;;;;12.60;5.03;;;;;;;11.06;83.50;102129.56;1789823;78;20984;-86
2022/11/11 04:21:49;;;;;;;14.53;5.78;;;;;;;11.06;83.37;102128.24;1783610;78;20971;-86
2022/11/11 04:27:06;;;;;;;14.10;4.72;;;;;;;11.08;83.42;102123.52;1787540;78;21736;-85
2022/11/11 04:29:33;;;;;;;18.67;5.25;;;;;;;11.10;83.38;102130.17;1795261;79;20970;-85
2022/11/11 04:34:54;;;;;;;13.68;5.60;;;;;;;11.12;83.31;102126.30;1786319;79;21034;-86
2022/11/11 04:37:22;;;;;;;16.00;6.87;;;;;;;11.14;83.31;102120.67;1783930;78;21546;-86
2022/11/11 04:42:34;;;;;;;21.57;9.03;;;;;;;11.18;83.26;102111.64;1784800;79;20990;-85
2022/11/11 04:48:00;;;;;;;16.50;6.35;;;;;;;11.19;83.10;102091.48;1792210;79;21014;-86
2022/11/11 04:50:33;;;;;;;16.00;6.42;;;;;;;11.18;83.00;102087.03;1790401;79;21010;-86
2022/11/11 04:53:00;;;;;;;15.95;7.67;;;;;;;11.13;82.84;102085.91;1788993;78;21728;-86
2022/11/11 04:58:11;;;;;;;15.08;7.20;;;;;;;11.01;82.82;102088.49;1797426;79;20994;-86
2022/11/11 05:00:41;;;;;;;22.82;7.22;;;;;;;10.97;82.81;102087.87;1786570;78;21028;-86
2022/11/11 05:03:15;;;;;;;23.95;5.75;;;;;;;10.93;82.78;102081.10;1784664;79;21077;-85
2022/11/11 05:08:57;;;;;;;12.05;4.95;;;;;;;10.81;82.84;102098.55;1788020;79;21065;-85
2022/11/11 05:11:28;;;;;;;17.37;5.17;;;;;;;10.78;82.90;102101.95;1803386;78;21009;-86
2022/11/11 05:22:35;;;;;;;16.55;5.35;;;;;;;10.64;82.96;102109.23;1797026;78;21541;-86
2022/11/11 05:27:47;;;;;;;15.88;5.17;;;;;;;10.63;83.19;102095.56;1792675;79;21045;-86
2022/11/11 05:30:14;;;;;;;19.00;6.03;;;;;;;10.67;83.28;102098.81;1793383;78;21348;-85
2022/11/11 05:32:41;;;;;;;14.98;5.08;;;;;;;10.71;83.33;102099.86;1783327;79;22843;-86
2022/11/11 05:35:09;;;;;;;15.55;5.00;;;;;;;10.76;83.40;102095.72;1785350;79;21835;-86
2022/11/11 05:37:35;;;;;;;14.38;5.35;;;;;;;10.81;83.27;102098.55;1798203;79;21085;-85
2022/11/11 05:40:02;;;;;;;11.85;4.25;;;;;;;10.81;83.25;102109.08;1791460;79;21039;-85
2022/11/11 05:42:29;;;;;;;16.82;4.65;;;;;;;10.82;83.16;102102.58;1798594;78;20974;-86
2022/11/11 05:44:55;;;;;;;24.07;11.03;;;;;;;10.81;83.11;102104.73;1793270;79;21661;-86
2022/11/11 05:47:22;;;;;;;15.05;5.65;;;;;;;10.81;83.18;102096.84;1789109;79;21010;-86
2022/11/11 05:49:49;;;;;;;15.13;5.47;;;;;;;10.84;83.20;102102.22;1791998;79;21021;-86
2022/11/11 05:52:15;;;;;;;44.23;17.90;;;;;;;10.88;83.24;102109.42;1790294;79;21034;-86
2022/11/11 05:54:43;;;;;;;19.17;7.65;;;;;;;10.94;83.28;102110.12;1793374;79;21854;-86
2022/11/11 05:57:09;;;;;;;14.65;6.45;;;;;;;10.98;83.22;102109.84;1781026;79;22562;-86
2022/11/11 05:59:36;;;;;;;13.20;5.72;;;;;;;11.03;83.22;102107.91;1792399;79;21973;-86
2022/11/11 06:02:03;;;;;;;14.45;4.62;;;;;;;11.06;83.16;102105.42;1797975;79;21428;-86
2022/11/11 06:04:30;;;;;;;19.87;6.20;;;;;;;11.11;83.15;102102.08;1792016;79;21915;-86
2022/11/11 06:06:57;;;;;;;13.32;4.72;;;;;;;11.14;83.06;102091.69;1792230;79;21404;-85
2022/11/11 06:09:23;;;;;;;12.60;4.28;;;;;;;11.15;83.00;102093.08;1796080;78;21707;-86
2022/11/11 06:11:50;;;;;;;14.83;4.10;;;;;;;11.18;82.96;102097.14;1787284;78;21053;-86
2022/11/11 06:14:17;;;;;;;14.23;4.33;;;;;;;11.21;82.90;102099.04;1786952;78;21464;-86
2022/11/11 06:16:44;;;;;;;13.88;4.20;;;;;;;11.22;82.87;102100.43;1788605;78;21852;-85
2022/11/11 06:19:10;;;;;;;16.20;4.75;;;;;;;11.26;82.91;102104.99;1783589;79;20937;-85
2022/11/11 06:22:10;;;;;;;10.72;3.90;;;;;;;11.31;82.80;102106.92;1786672;79;21745;-85
2022/11/11 06:24:11;;;;;;;12.55;4.72;;;;;;;11.33;82.73;102113.16;1766352;79;20999;-86
2022/11/11 06:26:38;;;;;;;14.80;4.20;;;;;;;11.34;82.68;102126.41;1780014;78;21077;-86
2022/11/11 06:29:05;;;;;;;13.40;4.37;;;;;;;11.39;82.65;102137.15;1792330;79;20971;-86
2022/11/11 06:31:31;;;;;;;15.75;4.67;;;;;;;11.39;82.54;102135.44;1775534;79;21006;-86
2022/11/11 06:33:58;;;;;;;14.53;4.85;;;;;;;11.43;82.54;102136.05;1779514;78;21681;-85
2022/11/11 06:36:25;;;;;;;18.23;4.62;;;;;;;11.44;82.48;102136.94;1792711;79;21042;-85
2022/11/11 06:38:52;;;;;;;11.78;4.30;;;;;;;11.46;82.45;102133.52;1787545;79;20942;-86
2022/11/11 06:41:18;;;;;;;11.70;3.98;;;;;;;11.48;82.37;102145.03;1789627;79;21138;-86
2022/11/11 06:43:45;;;;;;;17.70;4.87;;;;;;;11.49;82.36;102149.91;1787247;79;21384;-85
2022/11/11 06:46:21;;;;;;;14.35;4.08;;;;;;;11.52;82.27;102154.41;1790022;79;22923;-86
2022/11/11 06:48:48;;;;;;;16.42;5.10;;;;;;;11.54;82.23;102163.28;1758185;79;20986;-86
2022/11/11 06:51:15;;;;;;;13.00;3.95;;;;;;;11.56;82.24;102161.22;1795322;79;21034;-85
2022/11/11 06:53:42;;;;;;;11.22;4.17;;;;;;;11.59;82.20;102161.77;1787570;79;21005;-85
2022/11/11 06:56:08;;;;;;;11.35;3.92;;;;;;;11.64;82.14;102160.23;1786200;79;20966;-86
2022/11/11 06:58:35;;;;;;;11.48;4.22;;;;;;;11.66;82.03;102165.15;1784283;79;21780;-86
2022/11/11 07:01:06;;;;;;;17.37;5.08;;;;;;;11.67;82.02;102158.63;1794993;79;21052;-86
2022/11/11 07:03:33;;;;;;;14.83;4.53;;;;;;;11.71;81.96;102161.38;1790743;79;21005;-84
2022/11/11 07:06:04;;;;;;;12.75;4.45;;;;;;;11.73;81.92;102167.62;1788721;79;20970;-85
2022/11/11 07:08:31;;;;;;;11.95;4.92;;;;;;;11.74;81.85;102166.37;1788487;79;20982;-85
2022/11/11 07:10:58;;;;;;;15.28;4.85;;;;;;;11.75;81.78;102169.51;1793551;78;21729;-85
2022/11/11 07:13:25;;;;;;;16.17;4.15;;;;;;;11.77;81.69;102169.55;1789470;79;20962;-85
2022/11/11 07:15:52;;;;;;;13.78;5.10;;;;;;;11.79;81.71;102157.35;1793247;79;20990;-84
2022/11/11 07:18:18;;;;;;;11.63;4.20;;;;;;;11.80;81.59;102162.66;1788837;78;21066;-85
2022/11/11 07:20:45;;;;;;;17.92;5.30;;;;;;;11.82;81.58;102164.98;1796578;79;21439;-85
2022/11/11 07:23:12;;;;;;;12.58;4.30;;;;;;;11.84;81.50;102163.31;1789324;78;22412;-85
2022/11/11 07:25:38;;;;;;;11.50;5.00;;;;;;;11.86;81.47;102164.27;1789982;79;20979;-85
2022/11/11 07:28:05;;;;;;;13.72;4.83;;;;;;;11.88;81.39;102160.38;1791607;79;21841;-88
2022/11/11 07:30:32;;;;;;;15.98;4.50;;;;;;;11.92;81.35;102165.37;1788227;79;21828;-85
2022/11/11 07:32:58;;;;;;;11.10;4.12;;;;;;;11.94;81.33;102163.73;1790652;79;21510;-85
2022/11/11 07:35:25;;;;;;;13.32;4.28;;;;;;;11.98;81.28;102168.30;1785683;79;21894;-85
2022/11/11 07:37:52;;;;;;;11.97;4.55;;;;;;;11.99;81.17;102166.13;1794284;79;21026;-85
2022/11/11 07:40:19;;;;;;;10.55;3.87;;;;;;;12.01;81.05;102172.36;1794131;79;21505;-84
2022/11/11 07:42:46;;;;;;;11.68;3.98;;;;;;;12.02;81.01;102168.90;1790460;79;21042;-84
2022/11/11 07:45:12;;;;;;;13.68;4.60;;;;;;;12.05;81.04;102172.57;1787672;79;21831;-83
2022/11/11 07:47:41;;;;;;;13.32;4.53;;;;;;;12.10;80.95;102181.09;1788200;78;21653;-83
2022/11/11 07:50:09;;;;;;;16.25;4.40;;;;;;;12.13;80.90;102175.52;1786591;79;21014;-84
2022/11/11 07:52:36;;;;;;;11.40;4.30;;;;;;;12.17;80.81;102174.81;1790974;79;21454;-84
2022/11/11 07:55:04;;;;;;;12.65;4.53;;;;;;;12.22;80.80;102171.95;1763777;79;22461;-83
2022/11/11 07:57:31;;;;;;;12.58;4.28;;;;;;;12.30;80.72;102180.61;1788245;79;21951;-83
2022/11/11 07:59:57;;;;;;;12.43;4.05;;;;;;;12.36;80.62;102179.53;1789284;79;21804;-85
2022/11/11 08:02:24;;;;;;;12.75;4.62;;;;;;;12.40;80.54;102178.80;1780478;79;21794;-84
2022/11/11 08:04:51;;;;;;;13.22;4.20;;;;;;;12.45;80.44;102166.70;1796622;79;21541;-84
2022/11/11 08:07:18;;;;;;;10.70;4.10;;;;;;;12.50;80.34;102169.50;1789881;78;21007;-86
2022/11/11 08:09:45;;;;;;;14.80;4.45;;;;;;;12.53;80.16;102161.28;1756422;80;21631;-87
2022/11/11 08:14:56;;;;;;;14.60;4.70;;;;;;;12.58;80.05;102182.19;1749438;81;21515;-87
2022/11/11 08:20:38;;;;;;;9.15;3.58;;;;;;;12.66;79.91;102171.03;1720938;81;21030;-87
2022/11/11 08:23:09;;;;;;;9.65;3.70;;;;;;;12.67;79.75;102184.30;1749676;80;21061;-87
2022/11/11 08:25:37;;;;;;;14.70;4.42;;;;;;;12.71;79.71;102182.26;1724479;81;20982;-87
2022/11/11 08:28:04;;;;;;;12.58;4.05;;;;;;;12.74;79.66;102182.35;1750075;81;21007;-86
2022/11/11 08:30:31;;;;;;;9.88;4.10;;;;;;;12.78;79.57;102192.63;1751945;81;21015;-86
2022/11/11 08:33:04;;;;;;;13.55;3.98;;;;;;;12.76;79.41;102192.98;1751675;80;20982;-86
2022/11/11 08:35:31;;;;;;;9.83;4.05;;;;;;;12.74;79.36;102190.71;1743202;80;21039;-86
2022/11/11 08:38:01;;;;;;;9.70;4.28;;;;;;;12.71;79.26;102188.86;1752422;80;21731;-87
2022/11/11 08:40:28;;;;;;;16.42;5.87;;;;;;;12.68;79.29;102182.55;1752497;80;21022;-87
2022/11/11 08:42:58;;;;;;;13.13;4.25;;;;;;;12.63;79.19;102191.60;1755209;81;20971;-84
2022/11/11 08:45:25;;;;;;;14.78;4.60;;;;;;;12.57;79.20;102193.58;1753238;81;21041;-83
2022/11/11 08:47:51;;;;;;;12.55;4.12;;;;;;;12.54;79.26;102185.98;1754088;80;21774;-87
2022/11/11 08:50:18;;;;;;;15.03;6.67;;;;;;;12.53;79.32;102191.66;1748507;80;21739;-86
2022/11/11 08:52:50;;;;;;;12.47;4.08;;;;;;;12.54;79.38;102171.45;1753661;81;21051;-87
2022/11/11 08:55:17;;;;;;;15.23;4.70;;;;;;;12.53;79.32;102174.49;1753780;81;21042;-87
2022/11/11 08:57:44;;;;;;;9.18;4.10;;;;;;;12.51;79.29;102179.25;1752518;81;21075;-88
2022/11/11 09:00:12;;;;;;;12.33;3.77;;;;;;;12.49;79.40;102178.28;1750825;81;21014;-87
2022/11/11 09:02:39;;;;;;;11.48;4.12;;;;;;;12.39;79.37;102163.82;1747489;81;21832;-87
2022/11/11 09:05:05;;;;;;;9.78;3.95;;;;;;;12.47;79.38;102186.14;1751546;81;21010;-87
2022/11/11 09:07:32;;;;;;;12.30;3.90;;;;;;;12.48;79.40;102196.28;1752751;81;21050;-86
2022/11/11 09:10:02;;;;;;;8.15;3.62;;;;;;;12.49;79.45;102196.34;1756700;78;21000;-86
2022/11/11 09:12:29;;;;;;;13.90;3.60;;;;;;;12.49;79.37;102205.59;1785171;79;21052;-87
2022/11/11 09:14:56;;;;;;;13.65;4.10;;;;;;;12.47;79.40;102206.37;1785439;79;21756;-87
2022/11/11 09:17:23;;;;;;;12.03;3.58;;;;;;;12.45;79.38;102207.20;1784757;79;21014;-86
2022/11/11 09:19:51;;;;;;;14.78;5.47;;;;;;;12.44;79.42;102206.73;1780438;79;20979;-86
2022/11/11 09:22:18;;;;;;;15.65;4.65;;;;;;;12.43;79.49;102211.52;1776116;79;20959;-86
2022/11/11 09:24:44;;;;;;;8.38;4.03;;;;;;;12.46;79.50;102213.37;1787264;79;21098;-86
2022/11/11 09:27:11;;;;;;;8.18;3.47;;;;;;;12.49;79.56;102200.30;1777406;78;21735;-89
2022/11/11 09:29:38;;;;;;;11.97;5.10;;;;;;;12.51;79.52;102193.77;1781459;78;20970;-87
2022/11/11 09:32:05;;;;;;;12.75;3.80;;;;;;;12.51;79.50;102196.41;1779378;79;21001;-87
2022/11/11 09:34:31;;;;;;;12.50;4.60;;;;;;;12.53;79.46;102192.09;1783064;79;20975;-87
2022/11/11 09:36:58;;;;;;;8.60;3.72;;;;;;;12.53;79.49;102193.41;1784943;78;20890;-87
2022/11/11 09:39:27;;;;;;;15.78;4.65;;;;;;;12.55;79.57;102194.37;1784424;78;21790;-86
2022/11/11 09:42:21;;;;;;;11.20;4.53;;;;;;;12.57;79.52;102200.18;1778915;78;20997;-87
2022/11/11 09:45:16;;;;;;;13.95;4.80;;;;;;;12.58;79.49;102201.11;1775389;78;21080;-89
2022/11/11 09:48:21;;;;;;;12.35;4.95;;;;;;;12.59;79.39;102196.28;1779449;78;21780;-89
2022/11/11 09:50:53;;;;;;;13.50;4.05;;;;;;;12.54;79.32;102205.36;1777862;78;21898;-88
2022/11/11 09:53:23;;;;;;;10.75;4.45;;;;;;;12.55;79.38;102208.89;1792540;79;22704;-88
2022/11/11 09:56:09;;;;;;;13.08;4.62;;;;;;;12.54;79.40;102214.61;1785752;79;20967;-88
2022/11/11 09:58:51;;;;;;;18.98;5.28;;;;;;;12.55;79.38;102220.35;1784202;79;21502;-88
2022/11/11 10:01:22;;;;;;;14.53;6.00;;;;;;;12.55;79.36;102224.74;1784846;79;21084;-87
2022/11/11 10:04:03;;;;;;;10.55;4.58;;;;;;;12.58;79.42;102219.59;1788802;79;21542;-86
2022/11/11 10:06:31;;;;;;;14.15;5.45;;;;;;;12.58;79.29;102219.17;1788105;79;21738;-86
2022/11/11 10:09:01;;;;;;;12.10;5.33;;;;;;;12.61;79.36;102215.73;1784456;79;20989;-86
2022/11/11 10:11:43;;;;;;;13.65;4.37;;;;;;;12.62;79.31;102223.73;1788171;78;21009;-86
2022/11/11 10:14:09;;;;;;;16.00;4.30;;;;;;;12.64;79.28;102223.80;1792105;79;21085;-86
2022/11/11 10:17:05;;;;;;;15.08;5.17;;;;;;;12.65;79.27;102226.94;1792045;79;21025;-86
2022/11/11 10:19:43;;;;;;;12.65;4.72;;;;;;;12.66;79.18;102225.19;1793890;79;21729;-86
2022/11/11 10:22:37;;;;;;;15.15;5.12;;;;;;;12.62;79.06;102232.08;1796747;79;20943;-86
2022/11/11 10:25:20;;;;;;;16.02;5.35;;;;;;;12.60;79.10;102225.41;1789845;79;21492;-86
2022/11/11 10:27:48;;;;;;;13.48;4.90;;;;;;;12.60;79.12;102230.70;1790757;79;21005;-86
2022/11/11 10:30:29;;;;;;;19.80;5.58;;;;;;;12.64;79.26;102232.61;1784702;79;21015;-86
2022/11/11 10:32:59;;;;;;;10.35;4.45;;;;;;;12.68;79.08;102231.00;1788157;79;21725;-86
2022/11/11 10:35:31;;;;;;;9.75;4.30;;;;;;;12.65;78.96;102230.89;1785080;79;21001;-85
2022/11/11 10:38:32;;;;;;;11.57;4.87;;;;;;;12.64;78.90;102221.16;1783458;79;21076;-86
2022/11/11 10:41:06;;;;;;;13.83;5.03;;;;;;;12.62;78.93;102213.16;1790706;79;21041;-86
2022/11/11 10:43:33;;;;;;;14.70;5.20;;;;;;;12.67;78.89;102210.72;1783836;79;21046;-86
2022/11/11 10:46:08;;;;;;;12.93;4.87;;;;;;;12.70;78.89;102208.61;1792253;79;21673;-86
2022/11/11 10:49:15;;;;;;;11.85;5.03;;;;;;;12.70;78.80;102204.22;1790418;79;20994;-86
2022/11/11 10:51:49;;;;;;;18.40;6.05;;;;;;;12.71;78.73;102206.03;1794477;79;21016;-86
2022/11/11 10:54:24;;;;;;;15.55;5.10;;;;;;;12.69;78.57;102201.51;1761254;80;20997;-86
2022/11/11 10:57:01;;;;;;;13.35;5.28;;;;;;;12.67;78.59;102206.76;1724394;82;21019;-86
2022/11/11 10:59:45;;;;;;;13.43;4.85;;;;;;;12.67;78.58;102203.19;1730962;82;21659;-86
2022/11/11 11:02:32;;;;;;;10.10;4.58;;;;;;;12.67;78.52;102204.52;1734379;81;20903;-86
2022/11/11 11:05:15;;;;;;;14.53;4.70;;;;;;;12.66;78.51;102202.30;1741398;81;21864;-86
2022/11/11 11:07:48;;;;;;;15.90;5.40;;;;;;;12.68;78.47;102200.62;1742535;81;21527;-86
2022/11/11 11:10:29;;;;;;;11.63;4.92;;;;;;;12.67;78.35;102192.23;1733180;81;21528;-86
2022/11/11 11:13:06;;;;;;;18.50;5.75;;;;;;;12.63;78.36;102188.95;1727218;81;21809;-86
2022/11/11 11:15:37;;;;;;;13.20;4.75;;;;;;;12.68;78.33;102203.69;1712998;82;21825;-86
2022/11/11 11:18:14;;;;;;;12.70;4.78;;;;;;;12.71;78.37;102211.32;1700760;82;21031;-86
2022/11/11 11:21:02;;;;;;;16.35;5.45;;;;;;;12.75;78.39;102218.95;1703667;82;21045;-86
2022/11/11 11:23:52;;;;;;;12.37;4.30;;;;;;;12.76;78.31;102219.41;1732911;80;21420;-86
2022/11/11 11:26:15;;;;;;;14.80;5.42;;;;;;;12.77;78.21;102219.91;1670279;82;20978;-86
2022/11/11 11:29:11;;;;;;;17.25;6.35;;;;;;;12.72;78.15;102221.45;1724089;82;20974;-86
2022/11/11 11:31:41;;;;;;;15.08;5.65;;;;;;;12.73;78.22;102216.67;1717463;81;21034;-86
2022/11/11 11:34:13;;;;;;;13.18;5.20;;;;;;;12.68;78.05;102212.50;1727437;81;21020;-86
2022/11/11 11:36:53;;;;;;;13.60;4.83;;;;;;;12.67;78.14;102216.01;1733778;80;21833;-86
2022/11/11 11:39:21;;;;;;;16.85;5.33;;;;;;;12.65;78.16;102212.41;1730814;80;20990;-86
2022/11/11 11:41:55;;;;;;;14.80;5.72;;;;;;;12.67;78.19;102212.05;1714724;81;21491;-86
2022/11/11 11:44:32;;;;;;;17.77;5.53;;;;;;;12.69;78.20;102209.44;1710019;81;20960;-86
2022/11/11 11:47:39;;;;;;;18.25;5.40;;;;;;;12.72;78.23;102217.06;1712619;82;21052;-86
2022/11/11 11:50:29;;;;;;;13.90;5.10;;;;;;;12.76;78.20;102219.02;1726541;82;20887;-86
2022/11/11 11:53:21;;;;;;;10.63;5.45;;;;;;;12.75;78.02;102219.84;1727609;81;21716;-86
2022/11/11 11:56:37;;;;;;;13.03;5.25;;;;;;;12.71;78.02;102213.96;1673363;84;21086;-86
2022/11/11 11:59:23;;;;;;;15.45;6.83;;;;;;;12.70;78.06;102220.50;1710226;82;21864;-86
2022/11/11 12:02:32;;;;;;;18.80;9.83;;;;;;;12.67;78.02;102216.01;1722210;82;21796;-86
2022/11/11 12:05:10;;;;;;;25.20;11.00;;;;;;;12.63;78.03;102213.66;1708208;82;21042;-87
2022/11/11 12:08:15;;;;;;;18.87;10.93;;;;;;;12.61;78.08;102212.70;1738366;80;21721;-86
2022/11/11 12:11:11;;;;;;;15.93;8.45;;;;;;;12.60;78.15;102217.48;1723544;82;20991;-85
2022/11/11 12:14:04;;;;;;;14.98;8.03;;;;;;;12.61;78.24;102212.70;1757988;80;20985;-86
2022/11/11 12:17:03;;;;;;;17.65;7.92;;;;;;;12.60;78.21;102212.20;1750481;80;21780;-86
2022/11/11 12:20:03;;;;;;;35.23;17.48;;;;;;;12.57;78.21;102223.95;1732662;80;21048;-86
2022/11/11 12:22:53;;;;;;;25.62;12.20;;;;;;;12.56;78.25;102223.48;1732635;80;21685;-86
2022/11/11 12:25:57;;;;;;;28.12;11.85;;;;;;;12.58;78.41;102227.09;1724126;82;21565;-86
2022/11/11 12:29:05;;;;;;;18.98;9.08;;;;;;;12.60;78.40;102232.02;1725998;82;20989;-86
2022/11/11 12:31:34;;;;;;;16.52;7.47;;;;;;;12.64;78.49;102223.37;1711997;82;21819;-86
2022/11/11 12:34:21;;;;;;;24.32;8.68;;;;;;;12.66;78.50;102218.16;1730849;81;21039;-86
2022/11/11 12:37:14;;;;;;;18.98;9.28;;;;;;;12.69;78.49;102220.92;1727735;81;21681;-86
2022/11/11 12:40:07;;;;;;;20.12;8.75;;;;;;;12.72;78.53;102219.70;1740556;81;21019;-86
2022/11/11 12:42:58;;;;;;;18.23;8.28;;;;;;;12.75;78.50;102225.55;1714076;81;21018;-86
2022/11/11 12:45:56;;;;;;;13.90;8.45;;;;;;;12.77;78.54;102227.41;1746285;79;21031;-86
2022/11/11 12:49:10;;;;;;;20.17;8.48;;;;;;;12.79;78.53;102226.16;1738530;79;21050;-86
2022/11/11 12:52:22;;;;;;;24.65;9.30;;;;;;;12.78;78.50;102227.90;1762050;79;20972;-86
2022/11/11 12:55:31;;;;;;;20.55;11.83;;;;;;;12.81;78.54;102228.00;1739173;79;20975;-86